sensor_id;sensor_type;location;lat;lon;timestamp;P1;durP1;ratioP1;P2;durP2;ratioP2
79747;SDS011;69232;47.488;19.268;2023-08-30T00:02:17;0.85;;;0.75;;
79747;SDS011;69232;47.488;19.268;2023-08-30T00:04:42;1.10;;;0.90;;
79747;SDS011;69232;47.488;19.268;2023-08-30T00:07:08;2.83;;;1.02;;
79747;SDS011;69232;47.488;19.268;2023-08-30T00:09:35;1.13;;;0.80;;
79747;SDS011;69232;47.488;19.268;2023-08-30T00:12:01;1.02;;;0.90;;
79747;SDS011;69232;47.488;19.268;2023-08-30T00:14:27;1.17;;;0.90;;
79747;SDS011;69232;47.488;19.268;2023-08-30T00:16:52;4.95;;;1.30;;
79747;SDS011;69232;47.488;19.268;2023-08-30T00:19:18;1.27;;;1.02;;
79747;SDS011;69232;47.488;19.268;2023-08-30T00:21:43;1.30;;;0.98;;
79747;SDS011;69232;47.488;19.268;2023-08-30T00:24:09;1.33;;;1.02;;
79747;SDS011;69232;47.488;19.268;2023-08-30T00:26:35;3.05;;;1.10;;
79747;SDS011;69232;47.488;19.268;2023-08-30T00:29:00;1.40;;;1.30;;
79747;SDS011;69232;47.488;19.268;2023-08-30T00:31:25;2.63;;;1.00;;
79747;SDS011;69232;47.488;19.268;2023-08-30T00:33:51;1.63;;;1.02;;
79747;SDS011;69232;47.488;19.268;2023-08-30T00:36:16;1.00;;;0.90;;
79747;SDS011;69232;47.488;19.268;2023-08-30T00:38:43;1.60;;;1.17;;
79747;SDS011;69232;47.488;19.268;2023-08-30T00:41:08;1.27;;;1.10;;
79747;SDS011;69232;47.488;19.268;2023-08-30T00:43:34;1.90;;;1.00;;
79747;SDS011;69232;47.488;19.268;2023-08-30T00:45:59;1.30;;;1.15;;
79747;SDS011;69232;47.488;19.268;2023-08-30T00:48:25;1.65;;;0.98;;
79747;SDS011;69232;47.488;19.268;2023-08-30T00:50:50;1.50;;;1.20;;
79747;SDS011;69232;47.488;19.268;2023-08-30T00:53:16;2.47;;;1.15;;
79747;SDS011;69232;47.488;19.268;2023-08-30T00:55:42;1.75;;;1.05;;
79747;SDS011;69232;47.488;19.268;2023-08-30T00:58:08;3.38;;;1.67;;
79747;SDS011;69232;47.488;19.268;2023-08-30T01:00:34;1.48;;;1.30;;
79747;SDS011;69232;47.488;19.268;2023-08-30T01:03:00;1.38;;;1.15;;
79747;SDS011;69232;47.488;19.268;2023-08-30T01:05:25;1.58;;;1.25;;
79747;SDS011;69232;47.488;19.268;2023-08-30T01:07:51;1.55;;;1.00;;
79747;SDS011;69232;47.488;19.268;2023-08-30T01:10:17;1.48;;;1.20;;
79747;SDS011;69232;47.488;19.268;2023-08-30T01:12:45;1.40;;;1.30;;
79747;SDS011;69232;47.488;19.268;2023-08-30T01:15:15;1.60;;;1.20;;
79747;SDS011;69232;47.488;19.268;2023-08-30T01:17:42;5.78;;;1.38;;
79747;SDS011;69232;47.488;19.268;2023-08-30T01:20:09;1.67;;;1.52;;
79747;SDS011;69232;47.488;19.268;2023-08-30T01:31:02;1.27;;;1.08;;
79747;SDS011;69232;47.488;19.268;2023-08-30T01:33:28;1.52;;;1.40;;
79747;SDS011;69232;47.488;19.268;2023-08-30T01:35:55;1.88;;;1.40;;
79747;SDS011;69232;47.488;19.268;2023-08-30T01:38:21;2.80;;;1.58;;
79747;SDS011;69232;47.488;19.268;2023-08-30T01:40:48;2.78;;;2.13;;
79747;SDS011;69232;47.488;19.268;2023-08-30T01:43:14;2.53;;;1.60;;
79747;SDS011;69232;47.488;19.268;2023-08-30T01:45:40;2.00;;;1.70;;
79747;SDS011;69232;47.488;19.268;2023-08-30T01:48:08;4.28;;;1.83;;
79747;SDS011;69232;47.488;19.268;2023-08-30T01:50:35;2.35;;;1.80;;
79747;SDS011;69232;47.488;19.268;2023-08-30T01:53:01;3.35;;;1.95;;
79747;SDS011;69232;47.488;19.268;2023-08-30T01:55:28;2.63;;;1.58;;
79747;SDS011;69232;47.488;19.268;2023-08-30T01:57:53;3.03;;;2.20;;
79747;SDS011;69232;47.488;19.268;2023-08-30T02:00:19;3.65;;;2.00;;
79747;SDS011;69232;47.488;19.268;2023-08-30T02:02:45;2.35;;;1.83;;
79747;SDS011;69232;47.488;19.268;2023-08-30T02:05:10;3.17;;;2.20;;
79747;SDS011;69232;47.488;19.268;2023-08-30T02:07:46;3.08;;;2.10;;
79747;SDS011;69232;47.488;19.268;2023-08-30T02:10:26;3.53;;;2.42;;
79747;SDS011;69232;47.488;19.268;2023-08-30T02:12:54;3.10;;;2.53;;
79747;SDS011;69232;47.488;19.268;2023-08-30T02:15:20;4.32;;;2.75;;
79747;SDS011;69232;47.488;19.268;2023-08-30T02:17:46;4.53;;;2.97;;
79747;SDS011;69232;47.488;19.268;2023-08-30T02:20:12;4.30;;;2.83;;
79747;SDS011;69232;47.488;19.268;2023-08-30T02:22:38;5.28;;;3.08;;
79747;SDS011;69232;47.488;19.268;2023-08-30T02:25:03;5.95;;;3.38;;
79747;SDS011;69232;47.488;19.268;2023-08-30T02:27:32;5.13;;;3.15;;
79747;SDS011;69232;47.488;19.268;2023-08-30T02:29:58;4.00;;;3.15;;
79747;SDS011;69232;47.488;19.268;2023-08-30T02:32:23;4.50;;;3.28;;
79747;SDS011;69232;47.488;19.268;2023-08-30T02:34:49;5.57;;;3.00;;
79747;SDS011;69232;47.488;19.268;2023-08-30T02:37:17;6.05;;;2.95;;
79747;SDS011;69232;47.488;19.268;2023-08-30T02:39:42;7.00;;;3.80;;
79747;SDS011;69232;47.488;19.268;2023-08-30T02:42:08;5.68;;;3.58;;
79747;SDS011;69232;47.488;19.268;2023-08-30T02:44:33;7.10;;;3.95;;
79747;SDS011;69232;47.488;19.268;2023-08-30T02:46:58;7.55;;;3.88;;
79747;SDS011;69232;47.488;19.268;2023-08-30T02:49:24;6.65;;;3.70;;
79747;SDS011;69232;47.488;19.268;2023-08-30T02:51:49;5.75;;;3.92;;
79747;SDS011;69232;47.488;19.268;2023-08-30T02:54:15;7.07;;;4.22;;
79747;SDS011;69232;47.488;19.268;2023-08-30T02:56:41;5.30;;;3.45;;
79747;SDS011;69232;47.488;19.268;2023-08-30T02:59:08;6.10;;;3.95;;
79747;SDS011;69232;47.488;19.268;2023-08-30T03:01:34;7.57;;;4.30;;
79747;SDS011;69232;47.488;19.268;2023-08-30T03:04:00;5.90;;;3.78;;
79747;SDS011;69232;47.488;19.268;2023-08-30T03:06:25;6.00;;;4.00;;
79747;SDS011;69232;47.488;19.268;2023-08-30T03:08:51;6.28;;;3.70;;
79747;SDS011;69232;47.488;19.268;2023-08-30T03:11:18;7.40;;;3.95;;
79747;SDS011;69232;47.488;19.268;2023-08-30T03:13:44;6.03;;;3.60;;
79747;SDS011;69232;47.488;19.268;2023-08-30T03:16:13;7.18;;;3.60;;
79747;SDS011;69232;47.488;19.268;2023-08-30T03:18:39;6.93;;;4.15;;
79747;SDS011;69232;47.488;19.268;2023-08-30T03:21:05;6.40;;;4.10;;
79747;SDS011;69232;47.488;19.268;2023-08-30T03:23:31;6.78;;;4.10;;
79747;SDS011;69232;47.488;19.268;2023-08-30T03:25:57;5.00;;;3.38;;
79747;SDS011;69232;47.488;19.268;2023-08-30T03:28:31;9.63;;;4.40;;
79747;SDS011;69232;47.488;19.268;2023-08-30T03:30:56;5.22;;;3.90;;
79747;SDS011;69232;47.488;19.268;2023-08-30T03:33:22;8.27;;;3.70;;
79747;SDS011;69232;47.488;19.268;2023-08-30T03:35:47;5.78;;;3.70;;
79747;SDS011;69232;47.488;19.268;2023-08-30T03:38:12;7.05;;;4.00;;
79747;SDS011;69232;47.488;19.268;2023-08-30T03:40:38;7.03;;;4.28;;
79747;SDS011;69232;47.488;19.268;2023-08-30T03:43:04;6.80;;;3.65;;
79747;SDS011;69232;47.488;19.268;2023-08-30T03:45:33;6.43;;;3.70;;
79747;SDS011;69232;47.488;19.268;2023-08-30T03:47:59;6.28;;;4.18;;
79747;SDS011;69232;47.488;19.268;2023-08-30T03:50:25;6.60;;;4.35;;
79747;SDS011;69232;47.488;19.268;2023-08-30T03:52:50;7.53;;;4.25;;
79747;SDS011;69232;47.488;19.268;2023-08-30T03:55:16;7.93;;;4.13;;
79747;SDS011;69232;47.488;19.268;2023-08-30T03:57:41;6.50;;;3.80;;
79747;SDS011;69232;47.488;19.268;2023-08-30T04:00:07;7.43;;;3.67;;
79747;SDS011;69232;47.488;19.268;2023-08-30T04:02:32;9.10;;;4.50;;
79747;SDS011;69232;47.488;19.268;2023-08-30T04:04:58;6.47;;;3.83;;
79747;SDS011;69232;47.488;19.268;2023-08-30T04:07:23;7.32;;;4.18;;
79747;SDS011;69232;47.488;19.268;2023-08-30T04:09:49;8.95;;;4.18;;
79747;SDS011;69232;47.488;19.268;2023-08-30T04:12:15;7.75;;;4.55;;
79747;SDS011;69232;47.488;19.268;2023-08-30T04:14:40;9.10;;;4.10;;
79747;SDS011;69232;47.488;19.268;2023-08-30T04:17:06;6.80;;;4.18;;
79747;SDS011;69232;47.488;19.268;2023-08-30T04:19:31;6.60;;;3.75;;
79747;SDS011;69232;47.488;19.268;2023-08-30T04:21:57;9.43;;;4.95;;
79747;SDS011;69232;47.488;19.268;2023-08-30T04:24:22;6.20;;;3.72;;
79747;SDS011;69232;47.488;19.268;2023-08-30T04:26:47;7.22;;;3.88;;
79747;SDS011;69232;47.488;19.268;2023-08-30T04:29:16;6.18;;;4.03;;
79747;SDS011;69232;47.488;19.268;2023-08-30T04:31:43;7.93;;;4.13;;
79747;SDS011;69232;47.488;19.268;2023-08-30T04:34:08;8.00;;;4.40;;
79747;SDS011;69232;47.488;19.268;2023-08-30T04:36:34;8.80;;;4.57;;
79747;SDS011;69232;47.488;19.268;2023-08-30T04:38:59;5.05;;;3.50;;
79747;SDS011;69232;47.488;19.268;2023-08-30T04:41:24;8.32;;;4.25;;
79747;SDS011;69232;47.488;19.268;2023-08-30T04:43:50;7.97;;;4.28;;
79747;SDS011;69232;47.488;19.268;2023-08-30T04:46:15;7.00;;;4.25;;
79747;SDS011;69232;47.488;19.268;2023-08-30T04:48:41;9.63;;;4.47;;
79747;SDS011;69232;47.488;19.268;2023-08-30T04:51:06;6.53;;;4.25;;
79747;SDS011;69232;47.488;19.268;2023-08-30T04:53:31;5.50;;;3.42;;
79747;SDS011;69232;47.488;19.268;2023-08-30T04:55:57;9.73;;;3.95;;
79747;SDS011;69232;47.488;19.268;2023-08-30T04:58:22;7.90;;;4.43;;
79747;SDS011;69232;47.488;19.268;2023-08-30T05:00:48;5.97;;;4.07;;
79747;SDS011;69232;47.488;19.268;2023-08-30T05:03:13;7.63;;;4.10;;
79747;SDS011;69232;47.488;19.268;2023-08-30T05:05:39;5.78;;;3.75;;
79747;SDS011;69232;47.488;19.268;2023-08-30T05:08:04;8.30;;;4.72;;
79747;SDS011;69232;47.488;19.268;2023-08-30T05:10:30;6.00;;;3.33;;
79747;SDS011;69232;47.488;19.268;2023-08-30T05:12:55;5.53;;;3.08;;
79747;SDS011;69232;47.488;19.268;2023-08-30T05:15:21;5.85;;;3.45;;
79747;SDS011;69232;47.488;19.268;2023-08-30T05:17:46;5.07;;;3.38;;
79747;SDS011;69232;47.488;19.268;2023-08-30T05:20:12;6.95;;;3.63;;
79747;SDS011;69232;47.488;19.268;2023-08-30T05:22:38;4.28;;;2.40;;
79747;SDS011;69232;47.488;19.268;2023-08-30T05:25:03;5.30;;;3.63;;
79747;SDS011;69232;47.488;19.268;2023-08-30T05:27:29;4.05;;;2.70;;
79747;SDS011;69232;47.488;19.268;2023-08-30T05:29:54;6.13;;;3.35;;
79747;SDS011;69232;47.488;19.268;2023-08-30T05:32:21;4.22;;;2.63;;
79747;SDS011;69232;47.488;19.268;2023-08-30T05:34:47;4.57;;;2.97;;
79747;SDS011;69232;47.488;19.268;2023-08-30T05:37:12;4.82;;;3.13;;
79747;SDS011;69232;47.488;19.268;2023-08-30T05:39:38;5.78;;;2.70;;
79747;SDS011;69232;47.488;19.268;2023-08-30T05:42:03;5.35;;;3.58;;
79747;SDS011;69232;47.488;19.268;2023-08-30T05:44:30;6.18;;;3.53;;
79747;SDS011;69232;47.488;19.268;2023-08-30T05:46:56;5.30;;;3.13;;
79747;SDS011;69232;47.488;19.268;2023-08-30T05:49:21;4.72;;;3.33;;
79747;SDS011;69232;47.488;19.268;2023-08-30T05:51:47;6.07;;;3.80;;
79747;SDS011;69232;47.488;19.268;2023-08-30T05:54:12;6.00;;;3.65;;
79747;SDS011;69232;47.488;19.268;2023-08-30T05:56:38;5.68;;;3.90;;
79747;SDS011;69232;47.488;19.268;2023-08-30T05:59:03;6.40;;;4.47;;
79747;SDS011;69232;47.488;19.268;2023-08-30T06:01:29;6.97;;;3.95;;
79747;SDS011;69232;47.488;19.268;2023-08-30T06:03:54;6.97;;;3.90;;
79747;SDS011;69232;47.488;19.268;2023-08-30T06:06:20;6.75;;;4.40;;
79747;SDS011;69232;47.488;19.268;2023-08-30T06:08:45;6.72;;;4.22;;
79747;SDS011;69232;47.488;19.268;2023-08-30T06:11:11;6.80;;;4.18;;
79747;SDS011;69232;47.488;19.268;2023-08-30T06:13:36;8.75;;;4.32;;
79747;SDS011;69232;47.488;19.268;2023-08-30T06:16:02;7.47;;;3.95;;
79747;SDS011;69232;47.488;19.268;2023-08-30T06:18:30;6.60;;;4.20;;
79747;SDS011;69232;47.488;19.268;2023-08-30T06:20:57;6.65;;;4.18;;
79747;SDS011;69232;47.488;19.268;2023-08-30T06:23:22;7.22;;;3.90;;
79747;SDS011;69232;47.488;19.268;2023-08-30T06:25:54;6.70;;;3.90;;
79747;SDS011;69232;47.488;19.268;2023-08-30T06:28:20;7.10;;;4.80;;
79747;SDS011;69232;47.488;19.268;2023-08-30T06:30:46;7.40;;;3.67;;
79747;SDS011;69232;47.488;19.268;2023-08-30T06:33:11;7.93;;;3.83;;
79747;SDS011;69232;47.488;19.268;2023-08-30T06:35:37;6.72;;;3.70;;
79747;SDS011;69232;47.488;19.268;2023-08-30T06:38:06;7.13;;;4.05;;
79747;SDS011;69232;47.488;19.268;2023-08-30T06:40:32;6.75;;;3.80;;
79747;SDS011;69232;47.488;19.268;2023-08-30T06:42:57;6.68;;;4.00;;
79747;SDS011;69232;47.488;19.268;2023-08-30T06:45:24;7.32;;;3.95;;
79747;SDS011;69232;47.488;19.268;2023-08-30T06:47:49;6.70;;;4.22;;
79747;SDS011;69232;47.488;19.268;2023-08-30T06:50:15;6.70;;;3.67;;
79747;SDS011;69232;47.488;19.268;2023-08-30T06:52:41;6.60;;;3.95;;
79747;SDS011;69232;47.488;19.268;2023-08-30T06:55:06;8.65;;;4.38;;
79747;SDS011;69232;47.488;19.268;2023-08-30T06:57:32;6.75;;;4.57;;
79747;SDS011;69232;47.488;19.268;2023-08-30T06:59:57;7.72;;;4.32;;
79747;SDS011;69232;47.488;19.268;2023-08-30T07:02:24;4.78;;;3.08;;
79747;SDS011;69232;47.488;19.268;2023-08-30T07:04:50;8.15;;;4.65;;
79747;SDS011;69232;47.488;19.268;2023-08-30T07:07:16;8.15;;;3.67;;
79747;SDS011;69232;47.488;19.268;2023-08-30T07:09:41;6.85;;;3.58;;
79747;SDS011;69232;47.488;19.268;2023-08-30T07:12:07;9.20;;;4.18;;
79747;SDS011;69232;47.488;19.268;2023-08-30T07:14:32;7.60;;;3.88;;
79747;SDS011;69232;47.488;19.268;2023-08-30T07:16:58;6.20;;;3.90;;
79747;SDS011;69232;47.488;19.268;2023-08-30T07:19:24;5.18;;;3.40;;
79747;SDS011;69232;47.488;19.268;2023-08-30T07:21:50;5.35;;;3.55;;
79747;SDS011;69232;47.488;19.268;2023-08-30T07:24:15;6.40;;;3.55;;
79747;SDS011;69232;47.488;19.268;2023-08-30T07:26:41;4.03;;;2.90;;
79747;SDS011;69232;47.488;19.268;2023-08-30T07:29:06;7.38;;;3.53;;
79747;SDS011;69232;47.488;19.268;2023-08-30T07:31:32;6.40;;;2.58;;
79747;SDS011;69232;47.488;19.268;2023-08-30T07:33:58;5.75;;;3.33;;
79747;SDS011;69232;47.488;19.268;2023-08-30T07:36:24;5.60;;;3.38;;
79747;SDS011;69232;47.488;19.268;2023-08-30T07:38:50;5.38;;;3.33;;
79747;SDS011;69232;47.488;19.268;2023-08-30T07:41:16;5.70;;;3.38;;
79747;SDS011;69232;47.488;19.268;2023-08-30T07:43:41;4.82;;;2.80;;
79747;SDS011;69232;47.488;19.268;2023-08-30T07:46:07;5.32;;;3.38;;
79747;SDS011;69232;47.488;19.268;2023-08-30T07:48:32;6.10;;;3.80;;
79747;SDS011;69232;47.488;19.268;2023-08-30T07:50:57;5.78;;;3.40;;
79747;SDS011;69232;47.488;19.268;2023-08-30T07:53:23;4.22;;;2.97;;
79747;SDS011;69232;47.488;19.268;2023-08-30T07:55:49;5.88;;;3.05;;
79747;SDS011;69232;47.488;19.268;2023-08-30T07:58:15;7.32;;;3.10;;
79747;SDS011;69232;47.488;19.268;2023-08-30T08:00:41;5.80;;;3.65;;
79747;SDS011;69232;47.488;19.268;2023-08-30T08:03:07;4.32;;;2.70;;
79747;SDS011;69232;47.488;19.268;2023-08-30T08:05:32;5.05;;;2.90;;
79747;SDS011;69232;47.488;19.268;2023-08-30T08:07:59;4.95;;;2.80;;
79747;SDS011;69232;47.488;19.268;2023-08-30T08:10:26;5.85;;;3.08;;
79747;SDS011;69232;47.488;19.268;2023-08-30T08:12:52;4.80;;;2.55;;
79747;SDS011;69232;47.488;19.268;2023-08-30T08:15:17;5.78;;;2.95;;
79747;SDS011;69232;47.488;19.268;2023-08-30T08:17:42;3.72;;;2.90;;
79747;SDS011;69232;47.488;19.268;2023-08-30T08:20:08;4.90;;;3.08;;
79747;SDS011;69232;47.488;19.268;2023-08-30T08:22:34;5.03;;;3.20;;
79747;SDS011;69232;47.488;19.268;2023-08-30T08:24:59;4.78;;;3.10;;
79747;SDS011;69232;47.488;19.268;2023-08-30T08:27:25;4.30;;;2.75;;
79747;SDS011;69232;47.488;19.268;2023-08-30T08:29:50;6.10;;;3.83;;
79747;SDS011;69232;47.488;19.268;2023-08-30T08:32:16;5.43;;;3.50;;
79747;SDS011;69232;47.488;19.268;2023-08-30T08:34:41;6.90;;;3.88;;
79747;SDS011;69232;47.488;19.268;2023-08-30T08:37:07;5.60;;;3.55;;
79747;SDS011;69232;47.488;19.268;2023-08-30T08:39:32;4.97;;;3.58;;
79747;SDS011;69232;47.488;19.268;2023-08-30T08:41:59;5.72;;;3.33;;
79747;SDS011;69232;47.488;19.268;2023-08-30T08:44:24;5.18;;;3.25;;
79747;SDS011;69232;47.488;19.268;2023-08-30T08:46:52;6.20;;;3.55;;
79747;SDS011;69232;47.488;19.268;2023-08-30T08:49:17;6.15;;;3.80;;
79747;SDS011;69232;47.488;19.268;2023-08-30T08:51:44;5.65;;;3.22;;
79747;SDS011;69232;47.488;19.268;2023-08-30T08:54:10;7.32;;;3.72;;
79747;SDS011;69232;47.488;19.268;2023-08-30T08:56:36;5.88;;;4.07;;
79747;SDS011;69232;47.488;19.268;2023-08-30T08:59:03;6.68;;;4.32;;
79747;SDS011;69232;47.488;19.268;2023-08-30T09:01:30;5.85;;;4.20;;
79747;SDS011;69232;47.488;19.268;2023-08-30T09:03:58;6.57;;;4.95;;
79747;SDS011;69232;47.488;19.268;2023-08-30T09:06:24;7.65;;;3.80;;
79747;SDS011;69232;47.488;19.268;2023-08-30T09:08:50;7.63;;;4.72;;
79747;SDS011;69232;47.488;19.268;2023-08-30T09:11:15;6.05;;;4.15;;
79747;SDS011;69232;47.488;19.268;2023-08-30T09:13:44;7.88;;;4.45;;
79747;SDS011;69232;47.488;19.268;2023-08-30T09:16:13;6.18;;;4.22;;
79747;SDS011;69232;47.488;19.268;2023-08-30T09:18:40;5.88;;;4.13;;
79747;SDS011;69232;47.488;19.268;2023-08-30T09:21:08;6.00;;;3.95;;
79747;SDS011;69232;47.488;19.268;2023-08-30T09:23:34;7.70;;;4.93;;
79747;SDS011;69232;47.488;19.268;2023-08-30T09:26:00;8.98;;;4.00;;
79747;SDS011;69232;47.488;19.268;2023-08-30T09:28:27;6.20;;;3.90;;
79747;SDS011;69232;47.488;19.268;2023-08-30T09:30:53;7.60;;;4.57;;
79747;SDS011;69232;47.488;19.268;2023-08-30T09:33:21;6.43;;;3.63;;
79747;SDS011;69232;47.488;19.268;2023-08-30T09:35:47;8.05;;;4.72;;
79747;SDS011;69232;47.488;19.268;2023-08-30T09:38:16;7.68;;;4.78;;
79747;SDS011;69232;47.488;19.268;2023-08-30T09:40:44;7.57;;;4.95;;
79747;SDS011;69232;47.488;19.268;2023-08-30T09:43:11;5.25;;;4.18;;
79747;SDS011;69232;47.488;19.268;2023-08-30T09:45:39;6.55;;;3.97;;
79747;SDS011;69232;47.488;19.268;2023-08-30T09:48:06;7.38;;;4.75;;
79747;SDS011;69232;47.488;19.268;2023-08-30T09:50:33;6.43;;;3.72;;
79747;SDS011;69232;47.488;19.268;2023-08-30T09:53:00;8.45;;;4.97;;
79747;SDS011;69232;47.488;19.268;2023-08-30T09:55:31;8.52;;;4.70;;
79747;SDS011;69232;47.488;19.268;2023-08-30T09:57:57;6.70;;;4.25;;
79747;SDS011;69232;47.488;19.268;2023-08-30T10:00:22;6.15;;;3.97;;
79747;SDS011;69232;47.488;19.268;2023-08-30T10:02:48;7.97;;;4.20;;
79747;SDS011;69232;47.488;19.268;2023-08-30T10:05:13;4.72;;;3.58;;
79747;SDS011;69232;47.488;19.268;2023-08-30T10:07:39;8.05;;;5.10;;
79747;SDS011;69232;47.488;19.268;2023-08-30T10:10:04;7.45;;;3.95;;
79747;SDS011;69232;47.488;19.268;2023-08-30T10:12:33;8.07;;;4.30;;
79747;SDS011;69232;47.488;19.268;2023-08-30T10:14:59;6.97;;;4.45;;
79747;SDS011;69232;47.488;19.268;2023-08-30T10:17:30;5.75;;;3.72;;
79747;SDS011;69232;47.488;19.268;2023-08-30T10:19:57;5.45;;;3.65;;
79747;SDS011;69232;47.488;19.268;2023-08-30T10:22:24;7.15;;;3.88;;
79747;SDS011;69232;47.488;19.268;2023-08-30T10:24:54;6.70;;;4.20;;
79747;SDS011;69232;47.488;19.268;2023-08-30T10:27:21;7.35;;;4.53;;
79747;SDS011;69232;47.488;19.268;2023-08-30T10:29:47;7.57;;;4.85;;
79747;SDS011;69232;47.488;19.268;2023-08-30T10:32:19;8.02;;;4.60;;
79747;SDS011;69232;47.488;19.268;2023-08-30T10:34:47;5.82;;;3.92;;
79747;SDS011;69232;47.488;19.268;2023-08-30T10:37:14;9.55;;;3.78;;
79747;SDS011;69232;47.488;19.268;2023-08-30T10:39:40;8.93;;;3.53;;
79747;SDS011;69232;47.488;19.268;2023-08-30T10:42:10;5.22;;;3.60;;
79747;SDS011;69232;47.488;19.268;2023-08-30T10:44:49;9.45;;;3.70;;
79747;SDS011;69232;47.488;19.268;2023-08-30T10:47:25;5.85;;;3.50;;
79747;SDS011;69232;47.488;19.268;2023-08-30T10:49:54;5.18;;;3.90;;
79747;SDS011;69232;47.488;19.268;2023-08-30T10:52:20;6.85;;;3.67;;
79747;SDS011;69232;47.488;19.268;2023-08-30T10:54:46;4.60;;;3.30;;
79747;SDS011;69232;47.488;19.268;2023-08-30T10:57:15;5.97;;;3.28;;
79747;SDS011;69232;47.488;19.268;2023-08-30T11:02:20;4.93;;;3.00;;
79747;SDS011;69232;47.488;19.268;2023-08-30T11:04:45;4.68;;;3.25;;
79747;SDS011;69232;47.488;19.268;2023-08-30T11:07:11;5.82;;;3.65;;
79747;SDS011;69232;47.488;19.268;2023-08-30T11:09:36;4.90;;;2.75;;
79747;SDS011;69232;47.488;19.268;2023-08-30T11:12:04;5.28;;;3.40;;
79747;SDS011;69232;47.488;19.268;2023-08-30T11:14:30;4.35;;;3.10;;
79747;SDS011;69232;47.488;19.268;2023-08-30T11:16:55;6.88;;;3.75;;
79747;SDS011;69232;47.488;19.268;2023-08-30T11:19:20;6.00;;;3.47;;
79747;SDS011;69232;47.488;19.268;2023-08-30T11:21:46;5.88;;;3.10;;
79747;SDS011;69232;47.488;19.268;2023-08-30T11:24:11;4.72;;;2.72;;
79747;SDS011;69232;47.488;19.268;2023-08-30T11:26:37;4.47;;;2.97;;
79747;SDS011;69232;47.488;19.268;2023-08-30T11:29:06;3.85;;;2.40;;
79747;SDS011;69232;47.488;19.268;2023-08-30T11:31:32;5.78;;;3.50;;
79747;SDS011;69232;47.488;19.268;2023-08-30T11:33:58;4.95;;;2.88;;
79747;SDS011;69232;47.488;19.268;2023-08-30T11:36:28;4.78;;;2.92;;
79747;SDS011;69232;47.488;19.268;2023-08-30T11:38:55;4.60;;;2.72;;
79747;SDS011;69232;47.488;19.268;2023-08-30T11:41:20;3.17;;;2.40;;
79747;SDS011;69232;47.488;19.268;2023-08-30T11:43:49;4.85;;;2.45;;
79747;SDS011;69232;47.488;19.268;2023-08-30T11:46:16;4.50;;;2.70;;
79747;SDS011;69232;47.488;19.268;2023-08-30T11:48:41;4.72;;;3.08;;
79747;SDS011;69232;47.488;19.268;2023-08-30T11:51:08;4.35;;;2.17;;
79747;SDS011;69232;47.488;19.268;2023-08-30T11:53:33;4.00;;;2.53;;
79747;SDS011;69232;47.488;19.268;2023-08-30T11:56:00;5.38;;;3.55;;
79747;SDS011;69232;47.488;19.268;2023-08-30T11:58:25;4.05;;;2.38;;
79747;SDS011;69232;47.488;19.268;2023-08-30T12:00:54;5.25;;;2.78;;
79747;SDS011;69232;47.488;19.268;2023-08-30T12:03:20;5.43;;;2.78;;
79747;SDS011;69232;47.488;19.268;2023-08-30T12:05:49;4.15;;;2.97;;
79747;SDS011;69232;47.488;19.268;2023-08-30T12:08:23;3.42;;;2.20;;
79747;SDS011;69232;47.488;19.268;2023-08-30T12:10:53;5.95;;;3.05;;
79747;SDS011;69232;47.488;19.268;2023-08-30T12:13:20;3.28;;;2.10;;
79747;SDS011;69232;47.488;19.268;2023-08-30T12:15:46;3.38;;;2.30;;
79747;SDS011;69232;47.488;19.268;2023-08-30T12:18:12;4.15;;;2.35;;
79747;SDS011;69232;47.488;19.268;2023-08-30T12:20:37;3.53;;;2.25;;
79747;SDS011;69232;47.488;19.268;2023-08-30T12:23:03;4.05;;;2.38;;
79747;SDS011;69232;47.488;19.268;2023-08-30T12:25:28;2.67;;;2.38;;
79747;SDS011;69232;47.488;19.268;2023-08-30T12:27:55;3.78;;;2.08;;
79747;SDS011;69232;47.488;19.268;2023-08-30T12:30:21;3.42;;;2.00;;
79747;SDS011;69232;47.488;19.268;2023-08-30T12:32:46;2.22;;;1.50;;
79747;SDS011;69232;47.488;19.268;2023-08-30T12:35:13;5.45;;;2.10;;
79747;SDS011;69232;47.488;19.268;2023-08-30T12:37:38;2.13;;;1.40;;
79747;SDS011;69232;47.488;19.268;2023-08-30T12:40:04;2.78;;;1.85;;
79747;SDS011;69232;47.488;19.268;2023-08-30T12:42:31;3.53;;;2.17;;
79747;SDS011;69232;47.488;19.268;2023-08-30T12:44:57;3.70;;;2.20;;
79747;SDS011;69232;47.488;19.268;2023-08-30T12:47:22;2.97;;;1.73;;
79747;SDS011;69232;47.488;19.268;2023-08-30T12:49:47;2.13;;;1.52;;
79747;SDS011;69232;47.488;19.268;2023-08-30T12:52:13;4.22;;;1.88;;
79747;SDS011;69232;47.488;19.268;2023-08-30T12:54:38;2.53;;;1.98;;
79747;SDS011;69232;47.488;19.268;2023-08-30T12:57:04;2.67;;;1.73;;
79747;SDS011;69232;47.488;19.268;2023-08-30T12:59:29;3.38;;;2.00;;
79747;SDS011;69232;47.488;19.268;2023-08-30T13:01:54;2.78;;;1.88;;
79747;SDS011;69232;47.488;19.268;2023-08-30T13:04:20;2.33;;;1.80;;
79747;SDS011;69232;47.488;19.268;2023-08-30T13:06:45;2.05;;;1.80;;
79747;SDS011;69232;47.488;19.268;2023-08-30T13:09:11;2.47;;;1.60;;
79747;SDS011;69232;47.488;19.268;2023-08-30T13:11:36;2.90;;;2.05;;
79747;SDS011;69232;47.488;19.268;2023-08-30T13:14:01;2.22;;;1.92;;
79747;SDS011;69232;47.488;19.268;2023-08-30T13:16:27;2.53;;;1.70;;
79747;SDS011;69232;47.488;19.268;2023-08-30T13:18:52;2.63;;;1.88;;
79747;SDS011;69232;47.488;19.268;2023-08-30T13:21:18;2.47;;;1.95;;
79747;SDS011;69232;47.488;19.268;2023-08-30T13:23:43;2.90;;;1.92;;
79747;SDS011;69232;47.488;19.268;2023-08-30T13:26:09;2.33;;;1.58;;
79747;SDS011;69232;47.488;19.268;2023-08-30T13:28:34;3.30;;;2.28;;
79747;SDS011;69232;47.488;19.268;2023-08-30T13:31:00;2.75;;;1.88;;
79747;SDS011;69232;47.488;19.268;2023-08-30T13:33:25;3.92;;;2.00;;
79747;SDS011;69232;47.488;19.268;2023-08-30T13:35:52;3.03;;;2.05;;
79747;SDS011;69232;47.488;19.268;2023-08-30T13:38:18;4.25;;;2.03;;
79747;SDS011;69232;47.488;19.268;2023-08-30T13:40:44;2.20;;;1.73;;
79747;SDS011;69232;47.488;19.268;2023-08-30T13:43:10;1.60;;;1.50;;
79747;SDS011;69232;47.488;19.268;2023-08-30T13:45:35;2.65;;;1.77;;
79747;SDS011;69232;47.488;19.268;2023-08-30T13:48:01;2.45;;;1.63;;
79747;SDS011;69232;47.488;19.268;2023-08-30T13:50:27;2.60;;;2.03;;
79747;SDS011;69232;47.488;19.268;2023-08-30T13:52:57;2.50;;;1.70;;
79747;SDS011;69232;47.488;19.268;2023-08-30T13:55:23;4.57;;;2.00;;
79747;SDS011;69232;47.488;19.268;2023-08-30T13:57:48;2.15;;;1.65;;
79747;SDS011;69232;47.488;19.268;2023-08-30T14:00:14;2.17;;;1.98;;
79747;SDS011;69232;47.488;19.268;2023-08-30T14:02:39;2.17;;;1.35;;
79747;SDS011;69232;47.488;19.268;2023-08-30T14:05:05;2.83;;;1.63;;
79747;SDS011;69232;47.488;19.268;2023-08-30T14:07:31;2.63;;;1.98;;
79747;SDS011;69232;47.488;19.268;2023-08-30T14:09:57;1.95;;;1.60;;
79747;SDS011;69232;47.488;19.268;2023-08-30T14:12:23;1.88;;;1.52;;
79747;SDS011;69232;47.488;19.268;2023-08-30T14:14:48;5.97;;;1.83;;
79747;SDS011;69232;47.488;19.268;2023-08-30T14:17:14;1.73;;;1.60;;
79747;SDS011;69232;47.488;19.268;2023-08-30T14:19:39;1.55;;;1.38;;
79747;SDS011;69232;47.488;19.268;2023-08-30T14:22:05;2.75;;;2.08;;
79747;SDS011;69232;47.488;19.268;2023-08-30T14:24:31;2.15;;;1.58;;
79747;SDS011;69232;47.488;19.268;2023-08-30T14:26:57;1.95;;;1.45;;
79747;SDS011;69232;47.488;19.268;2023-08-30T14:29:23;1.90;;;1.40;;
79747;SDS011;69232;47.488;19.268;2023-08-30T14:31:48;2.50;;;1.63;;
79747;SDS011;69232;47.488;19.268;2023-08-30T14:34:14;1.95;;;1.33;;
79747;SDS011;69232;47.488;19.268;2023-08-30T14:36:40;3.53;;;1.92;;
79747;SDS011;69232;47.488;19.268;2023-08-30T14:39:07;2.25;;;1.52;;